sensor_id;sensor_type;location;lat;lon;timestamp;temperature;humidity
7240;DHT22;3661;53.288;10.458;2024-03-08T00:01:46;1.70;99.90
7240;DHT22;3661;53.288;10.458;2024-03-08T00:04:18;1.70;99.90
7240;DHT22;3661;53.288;10.458;2024-03-08T00:06:51;1.70;99.90
7240;DHT22;3661;53.288;10.458;2024-03-08T00:09:23;1.70;99.90
7240;DHT22;3661;53.288;10.458;2024-03-08T00:11:55;1.70;99.90
7240;DHT22;3661;53.288;10.458;2024-03-08T00:14:28;1.60;99.90
7240;DHT22;3661;53.288;10.458;2024-03-08T00:17:00;1.60;99.90
7240;DHT22;3661;53.288;10.458;2024-03-08T00:19:34;1.60;99.90
7240;DHT22;3661;53.288;10.458;2024-03-08T00:22:06;1.60;99.90
7240;DHT22;3661;53.288;10.458;2024-03-08T00:24:38;1.50;99.90
7240;DHT22;3661;53.288;10.458;2024-03-08T00:27:10;1.50;99.90
7240;DHT22;3661;53.288;10.458;2024-03-08T00:29:44;1.50;99.90
7240;DHT22;3661;53.288;10.458;2024-03-08T00:32:17;1.50;99.90
7240;DHT22;3661;53.288;10.458;2024-03-08T00:34:50;1.50;99.90
7240;DHT22;3661;53.288;10.458;2024-03-08T00:37:22;1.40;99.90
7240;DHT22;3661;53.288;10.458;2024-03-08T00:39:55;1.40;99.90
7240;DHT22;3661;53.288;10.458;2024-03-08T00:42:27;1.50;99.90
7240;DHT22;3661;53.288;10.458;2024-03-08T00:45:01;1.40;99.90
7240;DHT22;3661;53.288;10.458;2024-03-08T00:47:33;1.40;99.90
7240;DHT22;3661;53.288;10.458;2024-03-08T00:50:06;1.40;99.90
7240;DHT22;3661;53.288;10.458;2024-03-08T00:52:39;1.30;99.90
7240;DHT22;3661;53.288;10.458;2024-03-08T00:55:11;1.30;99.90
7240;DHT22;3661;53.288;10.458;2024-03-08T00:57:43;1.30;99.90
7240;DHT22;3661;53.288;10.458;2024-03-08T01:00:18;1.30;99.90
7240;DHT22;3661;53.288;10.458;2024-03-08T01:02:51;1.30;99.90
7240;DHT22;3661;53.288;10.458;2024-03-08T01:05:24;1.30;99.90
7240;DHT22;3661;53.288;10.458;2024-03-08T01:07:56;1.30;99.90
7240;DHT22;3661;53.288;10.458;2024-03-08T01:10:28;1.20;99.90
7240;DHT22;3661;53.288;10.458;2024-03-08T01:13:03;1.30;99.90
7240;DHT22;3661;53.288;10.458;2024-03-08T01:15:37;1.20;99.90
7240;DHT22;3661;53.288;10.458;2024-03-08T01:18:12;1.20;99.90
7240;DHT22;3661;53.288;10.458;2024-03-08T01:20:44;1.20;99.90
7240;DHT22;3661;53.288;10.458;2024-03-08T01:23:17;1.20;99.90
7240;DHT22;3661;53.288;10.458;2024-03-08T01:25:49;1.20;99.90
7240;DHT22;3661;53.288;10.458;2024-03-08T01:28:27;1.10;99.90
7240;DHT22;3661;53.288;10.458;2024-03-08T01:31:01;1.10;99.90
7240;DHT22;3661;53.288;10.458;2024-03-08T01:33:34;1.10;99.90
7240;DHT22;3661;53.288;10.458;2024-03-08T01:36:07;1.10;99.90
7240;DHT22;3661;53.288;10.458;2024-03-08T01:38:39;1.00;99.90
7240;DHT22;3661;53.288;10.458;2024-03-08T01:41:11;1.00;99.90
7240;DHT22;3661;53.288;10.458;2024-03-08T01:43:45;1.00;99.90
7240;DHT22;3661;53.288;10.458;2024-03-08T01:46:20;1.00;99.90
7240;DHT22;3661;53.288;10.458;2024-03-08T01:48:53;1.00;99.90
7240;DHT22;3661;53.288;10.458;2024-03-08T01:51:25;1.00;99.90
7240;DHT22;3661;53.288;10.458;2024-03-08T01:54:01;0.90;99.90
7240;DHT22;3661;53.288;10.458;2024-03-08T01:56:35;0.90;99.90
7240;DHT22;3661;53.288;10.458;2024-03-08T01:59:07;0.90;99.90
7240;DHT22;3661;53.288;10.458;2024-03-08T02:01:41;0.90;99.90
7240;DHT22;3661;53.288;10.458;2024-03-08T02:04:14;0.90;99.90
7240;DHT22;3661;53.288;10.458;2024-03-08T02:06:47;0.80;99.90
7240;DHT22;3661;53.288;10.458;2024-03-08T02:09:19;0.80;99.90
7240;DHT22;3661;53.288;10.458;2024-03-08T02:11:51;0.80;99.90
7240;DHT22;3661;53.288;10.458;2024-03-08T02:14:25;0.80;99.90
7240;DHT22;3661;53.288;10.458;2024-03-08T02:17:02;0.70;99.90
7240;DHT22;3661;53.288;10.458;2024-03-08T02:19:35;0.70;99.90
7240;DHT22;3661;53.288;10.458;2024-03-08T02:22:08;0.70;99.90
7240;DHT22;3661;53.288;10.458;2024-03-08T02:24:41;0.70;99.90
7240;DHT22;3661;53.288;10.458;2024-03-08T02:27:14;0.60;99.90
7240;DHT22;3661;53.288;10.458;2024-03-08T02:29:48;0.60;99.90
7240;DHT22;3661;53.288;10.458;2024-03-08T02:32:20;0.60;99.90
7240;DHT22;3661;53.288;10.458;2024-03-08T02:34:56;0.60;99.90
7240;DHT22;3661;53.288;10.458;2024-03-08T02:37:31;0.60;99.90
7240;DHT22;3661;53.288;10.458;2024-03-08T02:40:04;0.60;99.90
7240;DHT22;3661;53.288;10.458;2024-03-08T02:42:36;0.60;99.90
7240;DHT22;3661;53.288;10.458;2024-03-08T02:45:09;0.50;99.90
7240;DHT22;3661;53.288;10.458;2024-03-08T02:47:42;0.50;99.90
7240;DHT22;3661;53.288;10.458;2024-03-08T02:50:17;0.50;99.90
7240;DHT22;3661;53.288;10.458;2024-03-08T02:52:51;0.50;99.90
7240;DHT22;3661;53.288;10.458;2024-03-08T02:55:23;0.50;99.90
7240;DHT22;3661;53.288;10.458;2024-03-08T02:57:56;0.50;99.90
7240;DHT22;3661;53.288;10.458;2024-03-08T03:00:31;0.50;99.90
7240;DHT22;3661;53.288;10.458;2024-03-08T03:03:03;0.40;99.90
7240;DHT22;3661;53.288;10.458;2024-03-08T03:05:36;0.40;99.90
7240;DHT22;3661;53.288;10.458;2024-03-08T03:08:09;0.40;99.90
7240;DHT22;3661;53.288;10.458;2024-03-08T03:10:42;0.40;99.90
7240;DHT22;3661;53.288;10.458;2024-03-08T03:13:14;0.40;99.90
7240;DHT22;3661;53.288;10.458;2024-03-08T03:15:50;0.30;99.90
7240;DHT22;3661;53.288;10.458;2024-03-08T03:18:22;0.30;99.90
7240;DHT22;3661;53.288;10.458;2024-03-08T03:20:54;0.30;99.90
7240;DHT22;3661;53.288;10.458;2024-03-08T03:23:28;0.30;99.90
7240;DHT22;3661;53.288;10.458;2024-03-08T03:26:04;0.30;99.90
7240;DHT22;3661;53.288;10.458;2024-03-08T03:28:37;0.20;99.90
7240;DHT22;3661;53.288;10.458;2024-03-08T03:31:10;0.30;99.90
7240;DHT22;3661;53.288;10.458;2024-03-08T03:33:44;0.20;99.90
7240;DHT22;3661;53.288;10.458;2024-03-08T03:36:17;0.20;99.90
7240;DHT22;3661;53.288;10.458;2024-03-08T03:38:51;0.20;99.90
7240;DHT22;3661;53.288;10.458;2024-03-08T03:41:35;0.20;99.90
7240;DHT22;3661;53.288;10.458;2024-03-08T03:44:07;0.20;99.90
7240;DHT22;3661;53.288;10.458;2024-03-08T03:46:41;0.10;99.90
7240;DHT22;3661;53.288;10.458;2024-03-08T03:49:15;0.20;99.90
7240;DHT22;3661;53.288;10.458;2024-03-08T03:51:47;0.10;99.90
7240;DHT22;3661;53.288;10.458;2024-03-08T03:54:21;0.10;99.90
7240;DHT22;3661;53.288;10.458;2024-03-08T03:56:53;0.10;99.90
7240;DHT22;3661;53.288;10.458;2024-03-08T03:59:26;0.10;99.90
7240;DHT22;3661;53.288;10.458;2024-03-08T04:01:58;0.10;99.90
7240;DHT22;3661;53.288;10.458;2024-03-08T04:04:30;0.10;99.90
7240;DHT22;3661;53.288;10.458;2024-03-08T04:07:03;0.00;99.90
7240;DHT22;3661;53.288;10.458;2024-03-08T04:09:37;0.00;99.90
7240;DHT22;3661;53.288;10.458;2024-03-08T04:12:09;0.00;99.90
7240;DHT22;3661;53.288;10.458;2024-03-08T04:14:42;0.00;99.90
7240;DHT22;3661;53.288;10.458;2024-03-08T04:17:15;0.00;99.90
7240;DHT22;3661;53.288;10.458;2024-03-08T04:19:47;0.00;99.90
7240;DHT22;3661;53.288;10.458;2024-03-08T04:22:19;0.00;99.90
7240;DHT22;3661;53.288;10.458;2024-03-08T04:24:54;0.00;99.90
7240;DHT22;3661;53.288;10.458;2024-03-08T04:27:27;-0.10;99.90
7240;DHT22;3661;53.288;10.458;2024-03-08T04:29:59;-0.10;99.90
7240;DHT22;3661;53.288;10.458;2024-03-08T04:32:31;-0.10;99.90
7240;DHT22;3661;53.288;10.458;2024-03-08T04:35:04;-0.10;99.90
7240;DHT22;3661;53.288;10.458;2024-03-08T04:37:36;-0.10;99.90
7240;DHT22;3661;53.288;10.458;2024-03-08T04:40:10;-0.20;99.90
7240;DHT22;3661;53.288;10.458;2024-03-08T04:42:43;-0.20;99.90
7240;DHT22;3661;53.288;10.458;2024-03-08T04:45:15;-0.20;99.90
7240;DHT22;3661;53.288;10.458;2024-03-08T04:47:47;-0.20;99.90
7240;DHT22;3661;53.288;10.458;2024-03-08T04:50:20;-0.20;99.90
7240;DHT22;3661;53.288;10.458;2024-03-08T04:52:52;-0.20;99.90
7240;DHT22;3661;53.288;10.458;2024-03-08T04:55:25;-0.30;99.90
7240;DHT22;3661;53.288;10.458;2024-03-08T04:57:57;-0.20;99.90
7240;DHT22;3661;53.288;10.458;2024-03-08T05:00:29;-0.20;99.90
7240;DHT22;3661;53.288;10.458;2024-03-08T05:03:02;-0.30;99.90
7240;DHT22;3661;53.288;10.458;2024-03-08T05:05:35;-0.30;99.90
7240;DHT22;3661;53.288;10.458;2024-03-08T05:08:07;-0.30;99.90
7240;DHT22;3661;53.288;10.458;2024-03-08T05:10:41;-0.30;99.90
7240;DHT22;3661;53.288;10.458;2024-03-08T05:13:13;-0.30;99.90
7240;DHT22;3661;53.288;10.458;2024-03-08T05:15:48;-0.30;99.90
7240;DHT22;3661;53.288;10.458;2024-03-08T05:18:20;-0.30;99.90
7240;DHT22;3661;53.288;10.458;2024-03-08T05:20:52;-0.30;99.90
7240;DHT22;3661;53.288;10.458;2024-03-08T05:23:24;-0.30;99.90
7240;DHT22;3661;53.288;10.458;2024-03-08T05:25:58;-0.40;99.90
7240;DHT22;3661;53.288;10.458;2024-03-08T05:28:31;-0.40;99.90
7240;DHT22;3661;53.288;10.458;2024-03-08T05:31:04;-0.40;99.90
7240;DHT22;3661;53.288;10.458;2024-03-08T05:33:36;-0.50;99.90
7240;DHT22;3661;53.288;10.458;2024-03-08T05:36:08;-0.40;99.90
7240;DHT22;3661;53.288;10.458;2024-03-08T05:38:42;-0.50;99.90
7240;DHT22;3661;53.288;10.458;2024-03-08T05:41:16;-0.50;99.90
7240;DHT22;3661;53.288;10.458;2024-03-08T05:43:48;-0.50;99.90
7240;DHT22;3661;53.288;10.458;2024-03-08T05:46:20;-0.50;99.90
7240;DHT22;3661;53.288;10.458;2024-03-08T05:48:52;-0.50;99.90
7240;DHT22;3661;53.288;10.458;2024-03-08T05:51:25;-0.50;99.90
7240;DHT22;3661;53.288;10.458;2024-03-08T05:53:58;-0.50;99.90
7240;DHT22;3661;53.288;10.458;2024-03-08T05:56:31;-0.50;99.90
7240;DHT22;3661;53.288;10.458;2024-03-08T05:59:04;-0.50;99.90
7240;DHT22;3661;53.288;10.458;2024-03-08T06:01:36;-0.50;99.90
7240;DHT22;3661;53.288;10.458;2024-03-08T06:04:08;-0.50;99.90
7240;DHT22;3661;53.288;10.458;2024-03-08T06:06:41;-0.60;99.90
7240;DHT22;3661;53.288;10.458;2024-03-08T06:09:13;-0.60;99.90
7240;DHT22;3661;53.288;10.458;2024-03-08T06:11:58;-0.60;99.90
7240;DHT22;3661;53.288;10.458;2024-03-08T06:14:30;-0.60;99.90
7240;DHT22;3661;53.288;10.458;2024-03-08T06:17:02;-0.60;99.90
7240;DHT22;3661;53.288;10.458;2024-03-08T06:19:36;-0.60;99.90
7240;DHT22;3661;53.288;10.458;2024-03-08T06:22:08;-0.60;99.90
7240;DHT22;3661;53.288;10.458;2024-03-08T06:24:41;-0.60;99.90
7240;DHT22;3661;53.288;10.458;2024-03-08T06:27:15;-0.60;99.90
7240;DHT22;3661;53.288;10.458;2024-03-08T06:29:48;-0.60;99.90
7240;DHT22;3661;53.288;10.458;2024-03-08T06:32:21;-0.60;99.90
7240;DHT22;3661;53.288;10.458;2024-03-08T06:34:56;-0.60;99.90
7240;DHT22;3661;53.288;10.458;2024-03-08T06:37:28;-0.60;99.90
7240;DHT22;3661;53.288;10.458;2024-03-08T06:40:05;-0.60;99.90
7240;DHT22;3661;53.288;10.458;2024-03-08T06:42:43;-0.60;99.90
7240;DHT22;3661;53.288;10.458;2024-03-08T06:45:16;-0.60;99.90
7240;DHT22;3661;53.288;10.458;2024-03-08T06:47:51;-0.60;99.90
7240;DHT22;3661;53.288;10.458;2024-03-08T06:50:25;-0.60;99.90
7240;DHT22;3661;53.288;10.458;2024-03-08T06:52:57;-0.60;99.90
7240;DHT22;3661;53.288;10.458;2024-03-08T06:55:30;-0.60;99.90
7240;DHT22;3661;53.288;10.458;2024-03-08T06:58:03;-0.60;99.90
7240;DHT22;3661;53.288;10.458;2024-03-08T07:00:37;-0.60;99.90
7240;DHT22;3661;53.288;10.458;2024-03-08T07:03:10;-0.60;99.90
7240;DHT22;3661;53.288;10.458;2024-03-08T07:05:47;-0.50;99.90
7240;DHT22;3661;53.288;10.458;2024-03-08T07:08:20;-0.50;99.90
7240;DHT22;3661;53.288;10.458;2024-03-08T07:10:53;-0.50;99.90
7240;DHT22;3661;53.288;10.458;2024-03-08T07:13:27;-0.50;99.90
7240;DHT22;3661;53.288;10.458;2024-03-08T07:16:00;-0.50;99.90
7240;DHT22;3661;53.288;10.458;2024-03-08T07:18:32;-0.50;99.90
7240;DHT22;3661;53.288;10.458;2024-03-08T07:21:06;-0.40;99.90
7240;DHT22;3661;53.288;10.458;2024-03-08T07:23:38;-0.40;99.90
7240;DHT22;3661;53.288;10.458;2024-03-08T07:26:49;-0.40;99.90
7240;DHT22;3661;53.288;10.458;2024-03-08T07:29:24;-0.40;99.90
7240;DHT22;3661;53.288;10.458;2024-03-08T07:31:56;-0.30;99.90
7240;DHT22;3661;53.288;10.458;2024-03-08T07:34:42;-0.30;99.90
7240;DHT22;3661;53.288;10.458;2024-03-08T07:37:14;-0.30;99.90
7240;DHT22;3661;53.288;10.458;2024-03-08T07:39:46;-0.20;99.90
7240;DHT22;3661;53.288;10.458;2024-03-08T07:42:18;-0.20;99.90
7240;DHT22;3661;53.288;10.458;2024-03-08T07:44:55;-0.10;99.90
7240;DHT22;3661;53.288;10.458;2024-03-08T07:47:27;-0.10;99.90
7240;DHT22;3661;53.288;10.458;2024-03-08T07:50:01;-0.10;99.90
7240;DHT22;3661;53.288;10.458;2024-03-08T07:52:33;0.00;99.90
7240;DHT22;3661;53.288;10.458;2024-03-08T07:55:07;0.00;99.90
7240;DHT22;3661;53.288;10.458;2024-03-08T07:57:41;0.10;99.90
7240;DHT22;3661;53.288;10.458;2024-03-08T08:00:16;0.10;99.90
7240;DHT22;3661;53.288;10.458;2024-03-08T08:02:49;0.20;99.90
7240;DHT22;3661;53.288;10.458;2024-03-08T08:05:21;0.30;99.90
7240;DHT22;3661;53.288;10.458;2024-03-08T08:07:53;0.30;99.90
7240;DHT22;3661;53.288;10.458;2024-03-08T08:10:26;0.40;99.90
7240;DHT22;3661;53.288;10.458;2024-03-08T08:12:59;0.50;99.90
7240;DHT22;3661;53.288;10.458;2024-03-08T08:15:33;0.50;99.90
7240;DHT22;3661;53.288;10.458;2024-03-08T08:18:05;0.60;99.90
7240;DHT22;3661;53.288;10.458;2024-03-08T08:20:40;0.70;99.90
7240;DHT22;3661;53.288;10.458;2024-03-08T08:23:12;0.80;99.90
7240;DHT22;3661;53.288;10.458;2024-03-08T08:25:44;0.90;99.90
7240;DHT22;3661;53.288;10.458;2024-03-08T08:28:16;1.00;99.90
7240;DHT22;3661;53.288;10.458;2024-03-08T08:30:52;1.00;99.90
7240;DHT22;3661;53.288;10.458;2024-03-08T08:33:24;1.10;99.90
7240;DHT22;3661;53.288;10.458;2024-03-08T08:35:57;1.20;99.90
7240;DHT22;3661;53.288;10.458;2024-03-08T08:38:29;1.30;99.90
7240;DHT22;3661;53.288;10.458;2024-03-08T08:41:01;1.40;99.90
7240;DHT22;3661;53.288;10.458;2024-03-08T08:43:34;1.50;99.90
7240;DHT22;3661;53.288;10.458;2024-03-08T08:46:07;1.60;99.90
7240;DHT22;3661;53.288;10.458;2024-03-08T08:48:39;1.70;99.90
7240;DHT22;3661;53.288;10.458;2024-03-08T08:51:12;1.90;99.90
7240;DHT22;3661;53.288;10.458;2024-03-08T08:53:44;2.00;99.90
7240;DHT22;3661;53.288;10.458;2024-03-08T08:56:18;2.10;99.90
7240;DHT22;3661;53.288;10.458;2024-03-08T08:58:50;2.20;99.90
7240;DHT22;3661;53.288;10.458;2024-03-08T09:01:23;2.30;99.90
7240;DHT22;3661;53.288;10.458;2024-03-08T09:03:57;2.40;99.90
7240;DHT22;3661;53.288;10.458;2024-03-08T09:06:29;2.50;99.90
7240;DHT22;3661;53.288;10.458;2024-03-08T09:09:01;2.60;99.90
7240;DHT22;3661;53.288;10.458;2024-03-08T09:11:34;2.70;99.90
7240;DHT22;3661;53.288;10.458;2024-03-08T09:14:06;2.80;99.90
7240;DHT22;3661;53.288;10.458;2024-03-08T09:16:40;3.00;99.90
7240;DHT22;3661;53.288;10.458;2024-03-08T09:19:12;3.10;99.90
7240;DHT22;3661;53.288;10.458;2024-03-08T09:21:45;3.20;99.90
7240;DHT22;3661;53.288;10.458;2024-03-08T09:24:17;3.30;99.90
7240;DHT22;3661;53.288;10.458;2024-03-08T09:26:49;3.50;99.90
7240;DHT22;3661;53.288;10.458;2024-03-08T09:29:22;3.60;99.90
7240;DHT22;3661;53.288;10.458;2024-03-08T09:31:56;3.80;99.90
7240;DHT22;3661;53.288;10.458;2024-03-08T09:34:28;3.90;99.90
7240;DHT22;3661;53.288;10.458;2024-03-08T09:37:00;4.10;99.90
7240;DHT22;3661;53.288;10.458;2024-03-08T09:39:36;4.20;99.90
7240;DHT22;3661;53.288;10.458;2024-03-08T09:42:08;4.30;99.90
7240;DHT22;3661;53.288;10.458;2024-03-08T09:44:44;4.50;99.90
7240;DHT22;3661;53.288;10.458;2024-03-08T09:47:19;4.60;99.90
7240;DHT22;3661;53.288;10.458;2024-03-08T09:49:53;4.80;99.90
7240;DHT22;3661;53.288;10.458;2024-03-08T09:52:26;4.90;99.90
7240;DHT22;3661;53.288;10.458;2024-03-08T09:55:01;5.00;99.90
7240;DHT22;3661;53.288;10.458;2024-03-08T09:57:33;5.10;99.90
7240;DHT22;3661;53.288;10.458;2024-03-08T10:00:08;5.30;99.90
7240;DHT22;3661;53.288;10.458;2024-03-08T10:02:50;5.40;99.90
7240;DHT22;3661;53.288;10.458;2024-03-08T10:05:24;5.60;99.90
7240;DHT22;3661;53.288;10.458;2024-03-08T10:07:56;5.70;99.90
7240;DHT22;3661;53.288;10.458;2024-03-08T10:10:29;5.80;99.90
7240;DHT22;3661;53.288;10.458;2024-03-08T10:13:01;5.90;99.90
7240;DHT22;3661;53.288;10.458;2024-03-08T10:15:35;6.00;99.90
7240;DHT22;3661;53.288;10.458;2024-03-08T10:18:08;6.10;99.90
7240;DHT22;3661;53.288;10.458;2024-03-08T10:20:41;6.20;99.90
7240;DHT22;3661;53.288;10.458;2024-03-08T10:23:13;6.40;99.90
7240;DHT22;3661;53.288;10.458;2024-03-08T10:25:45;6.50;99.90
7240;DHT22;3661;53.288;10.458;2024-03-08T10:28:18;6.60;99.90
7240;DHT22;3661;53.288;10.458;2024-03-08T10:30:50;6.80;99.90
7240;DHT22;3661;53.288;10.458;2024-03-08T10:33:23;6.80;99.90
7240;DHT22;3661;53.288;10.458;2024-03-08T10:35:56;6.90;99.90
7240;DHT22;3661;53.288;10.458;2024-03-08T10:38:31;7.10;99.90
7240;DHT22;3661;53.288;10.458;2024-03-08T10:41:06;7.20;99.90
7240;DHT22;3661;53.288;10.458;2024-03-08T10:43:52;7.20;99.90
7240;DHT22;3661;53.288;10.458;2024-03-08T10:46:39;7.30;99.90
7240;DHT22;3661;53.288;10.458;2024-03-08T10:49:17;7.50;99.90
7240;DHT22;3661;53.288;10.458;2024-03-08T10:51:50;7.60;99.90
7240;DHT22;3661;53.288;10.458;2024-03-08T10:54:23;7.70;99.90
7240;DHT22;3661;53.288;10.458;2024-03-08T10:56:56;7.80;99.90
7240;DHT22;3661;53.288;10.458;2024-03-08T10:59:29;7.90;99.90
7240;DHT22;3661;53.288;10.458;2024-03-08T11:02:02;8.00;99.90
7240;DHT22;3661;53.288;10.458;2024-03-08T11:04:38;8.10;99.90
7240;DHT22;3661;53.288;10.458;2024-03-08T11:07:13;8.30;99.90
7240;DHT22;3661;53.288;10.458;2024-03-08T11:09:48;8.40;99.90
7240;DHT22;3661;53.288;10.458;2024-03-08T11:12:24;8.50;99.90
7240;DHT22;3661;53.288;10.458;2024-03-08T11:15:00;8.60;99.90
7240;DHT22;3661;53.288;10.458;2024-03-08T11:17:45;8.70;99.90
7240;DHT22;3661;53.288;10.458;2024-03-08T11:20:20;8.80;99.90
7240;DHT22;3661;53.288;10.458;2024-03-08T11:22:53;8.80;99.90
7240;DHT22;3661;53.288;10.458;2024-03-08T11:25:35;8.90;99.90
7240;DHT22;3661;53.288;10.458;2024-03-08T11:28:14;8.90;99.90
7240;DHT22;3661;53.288;10.458;2024-03-08T11:33:53;9.00;99.90
7240;DHT22;3661;53.288;10.458;2024-03-08T11:36:27;9.00;99.90
7240;DHT22;3661;53.288;10.458;2024-03-08T11:39:01;9.10;99.90
7240;DHT22;3661;53.288;10.458;2024-03-08T11:41:40;9.20;99.90
7240;DHT22;3661;53.288;10.458;2024-03-08T11:44:13;9.30;99.90
7240;DHT22;3661;53.288;10.458;2024-03-08T11:46:46;9.40;99.90
7240;DHT22;3661;53.288;10.458;2024-03-08T11:49:18;9.40;99.90
7240;DHT22;3661;53.288;10.458;2024-03-08T11:51:53;9.50;99.90
7240;DHT22;3661;53.288;10.458;2024-03-08T11:54:25;9.60;99.90
7240;DHT22;3661;53.288;10.458;2024-03-08T11:56:57;9.70;99.90
7240;DHT22;3661;53.288;10.458;2024-03-08T11:59:31;9.70;99.90
7240;DHT22;3661;53.288;10.458;2024-03-08T12:02:04;9.80;99.90
7240;DHT22;3661;53.288;10.458;2024-03-08T12:04:36;9.90;99.90
7240;DHT22;3661;53.288;10.458;2024-03-08T12:07:11;9.90;99.90
7240;DHT22;3661;53.288;10.458;2024-03-08T12:10:17;9.90;99.90
7240;DHT22;3661;53.288;10.458;2024-03-08T12:12:51;10.00;99.90
7240;DHT22;3661;53.288;10.458;2024-03-08T12:18:51;10.00;99.90
7240;DHT22;3661;53.288;10.458;2024-03-08T12:25:04;10.00;99.90
7240;DHT22;3661;53.288;10.458;2024-03-08T12:31:08;10.00;99.90
7240;DHT22;3661;53.288;10.458;2024-03-08T12:37:08;10.10;99.90
7240;DHT22;3661;53.288;10.458;2024-03-08T12:43:09;10.10;99.90
7240;DHT22;3661;53.288;10.458;2024-03-08T12:45:44;10.20;99.90
7240;DHT22;3661;53.288;10.458;2024-03-08T12:48:17;10.20;99.90
7240;DHT22;3661;53.288;10.458;2024-03-08T12:50:51;10.20;99.90
7240;DHT22;3661;53.288;10.458;2024-03-08T12:53:24;10.20;99.90
7240;DHT22;3661;53.288;10.458;2024-03-08T12:55:59;10.20;99.90
7240;DHT22;3661;53.288;10.458;2024-03-08T12:58:33;10.20;99.90
7240;DHT22;3661;53.288;10.458;2024-03-08T13:01:05;10.30;99.90
7240;DHT22;3661;53.288;10.458;2024-03-08T13:03:38;10.30;99.90
7240;DHT22;3661;53.288;10.458;2024-03-08T13:06:11;10.30;99.90
7240;DHT22;3661;53.288;10.458;2024-03-08T13:08:43;10.40;99.90
7240;DHT22;3661;53.288;10.458;2024-03-08T13:11:15;10.30;99.90
7240;DHT22;3661;53.288;10.458;2024-03-08T13:13:49;10.40;99.90
7240;DHT22;3661;53.288;10.458;2024-03-08T13:16:21;10.40;99.90
7240;DHT22;3661;53.288;10.458;2024-03-08T13:18:53;10.40;99.90
7240;DHT22;3661;53.288;10.458;2024-03-08T13:21:27;10.40;99.90
7240;DHT22;3661;53.288;10.458;2024-03-08T13:24:00;10.40;99.90
7240;DHT22;3661;53.288;10.458;2024-03-08T13:26:35;10.40;99.90
7240;DHT22;3661;53.288;10.458;2024-03-08T13:29:09;10.40;99.90
7240;DHT22;3661;53.288;10.458;2024-03-08T13:31:43;10.40;99.90
7240;DHT22;3661;53.288;10.458;2024-03-08T13:34:15;10.40;99.90
7240;DHT22;3661;53.288;10.458;2024-03-08T13:36:47;10.50;99.90
7240;DHT22;3661;53.288;10.458;2024-03-08T13:39:21;10.50;99.90
7240;DHT22;3661;53.288;10.458;2024-03-08T13:41:56;10.50;99.90
7240;DHT22;3661;53.288;10.458;2024-03-08T13:44:29;10.50;99.90
7240;DHT22;3661;53.288;10.458;2024-03-08T13:47:02;10.50;99.90
7240;DHT22;3661;53.288;10.458;2024-03-08T13:49:35;10.60;99.90
7240;DHT22;3661;53.288;10.458;2024-03-08T13:52:07;10.60;99.90
7240;DHT22;3661;53.288;10.458;2024-03-08T13:54:40;10.60;99.90
7240;DHT22;3661;53.288;10.458;2024-03-08T13:57:13;10.60;99.90
7240;DHT22;3661;53.288;10.458;2024-03-08T13:59:46;10.60;99.90
7240;DHT22;3661;53.288;10.458;2024-03-08T14:02:19;10.60;99.90
7240;DHT22;3661;53.288;10.458;2024-03-08T14:04:55;10.70;99.90
7240;DHT22;3661;53.288;10.458;2024-03-08T14:07:27;10.70;99.90
7240;DHT22;3661;53.288;10.458;2024-03-08T14:10:00;10.70;99.90
7240;DHT22;3661;53.288;10.458;2024-03-08T14:12:32;10.70;99.90
7240;DHT22;3661;53.288;10.458;2024-03-08T14:15:07;10.80;99.90
7240;DHT22;3661;53.288;10.458;2024-03-08T14:17:41;10.80;99.90
7240;DHT22;3661;53.288;10.458;2024-03-08T14:20:14;10.90;99.90
7240;DHT22;3661;53.288;10.458;2024-03-08T14:22:48;11.00;99.90
7240;DHT22;3661;53.288;10.458;2024-03-08T14:25:22;11.00;99.90
7240;DHT22;3661;53.288;10.458;2024-03-08T14:27:54;11.00;99.90
7240;DHT22;3661;53.288;10.458;2024-03-08T14:30:30;11.00;99.90
7240;DHT22;3661;53.288;10.458;2024-03-08T14:33:08;11.00;99.90
7240;DHT22;3661;53.288;10.458;2024-03-08T14:35:41;11.10;99.90
7240;DHT22;3661;53.288;10.458;2024-03-08T14:38:14;11.10;99.90
7240;DHT22;3661;53.288;10.458;2024-03-08T14:40:48;11.10;99.90
7240;DHT22;3661;53.288;10.458;2024-03-08T14:43:21;11.10;99.90
7240;DHT22;3661;53.288;10.458;2024-03-08T14:45:54;11.10;99.90
7240;DHT22;3661;53.288;10.458;2024-03-08T14:48:26;11.20;99.90
7240;DHT22;3661;53.288;10.458;2024-03-08T14:50:58;11.20;99.90
7240;DHT22;3661;53.288;10.458;2024-03-08T14:53:31;11.20;99.90
7240;DHT22;3661;53.288;10.458;2024-03-08T14:56:03;11.20;99.90
7240;DHT22;3661;53.288;10.458;2024-03-08T14:58:35;11.20;99.90
7240;DHT22;3661;53.288;10.458;2024-03-08T15:01:10;11.30;99.90
7240;DHT22;3661;53.288;10.458;2024-03-08T15:03:44;11.30;99.90
7240;DHT22;3661;53.288;10.458;2024-03-08T15:06:16;11.20;99.90
7240;DHT22;3661;53.288;10.458;2024-03-08T15:08:50;11.30;99.90
7240;DHT22;3661;53.288;10.458;2024-03-08T15:11:23;11.30;99.90
7240;DHT22;3661;53.288;10.458;2024-03-08T15:13:55;11.30;99.90
7240;DHT22;3661;53.288;10.458;2024-03-08T15:16:30;11.40;99.90
7240;DHT22;3661;53.288;10.458;2024-03-08T15:19:02;11.40;99.90
7240;DHT22;3661;53.288;10.458;2024-03-08T15:21:36;11.50;99.90
7240;DHT22;3661;53.288;10.458;2024-03-08T15:24:08;11.40;99.90
7240;DHT22;3661;53.288;10.458;2024-03-08T15:26:45;11.40;99.90
7240;DHT22;3661;53.288;10.458;2024-03-08T15:29:20;11.40;99.90
7240;DHT22;3661;53.288;10.458;2024-03-08T15:31:58;11.40;99.90
7240;DHT22;3661;53.288;10.458;2024-03-08T15:34:30;11.40;99.90
7240;DHT22;3661;53.288;10.458;2024-03-08T15:37:04;11.40;99.90
7240;DHT22;3661;53.288;10.458;2024-03-08T15:39:37;11.40;99.50
7240;DHT22;3661;53.288;10.458;2024-03-08T15:42:09;11.40;99.20
7240;DHT22;3661;53.288;10.458;2024-03-08T15:44:41;11.40;99.00
7240;DHT22;3661;53.288;10.458;2024-03-08T15:47:16;11.30;99.20
7240;DHT22;3661;53.288;10.458;2024-03-08T15:49:48;11.40;99.30
7240;DHT22;3661;53.288;10.458;2024-03-08T15:52:20;11.40;99.30
7240;DHT22;3661;53.288;10.458;2024-03-08T15:54:56;11.30;99.00
7240;DHT22;3661;53.288;10.458;2024-03-08T15:57:29;11.30;98.90
7240;DHT22;3661;53.288;10.458;2024-03-08T16:00:01;11.30;98.90
7240;DHT22;3661;53.288;10.458;2024-03-08T16:02:44;11.20;98.90
7240;DHT22;3661;53.288;10.458;2024-03-08T16:05:16;11.20;98.80
7240;DHT22;3661;53.288;10.458;2024-03-08T16:07:50;11.20;98.90
7240;DHT22;3661;53.288;10.458;2024-03-08T16:10:22;11.20;98.80
7240;DHT22;3661;53.288;10.458;2024-03-08T16:12:56;11.10;98.60
7240;DHT22;3661;53.288;10.458;2024-03-08T16:15:28;11.10;98.60
7240;DHT22;3661;53.288;10.458;2024-03-08T16:18:01;11.00;98.50
7240;DHT22;3661;53.288;10.458;2024-03-08T16:20:37;10.90;98.30
7240;DHT22;3661;53.288;10.458;2024-03-08T16:23:09;10.80;98.20
7240;DHT22;3661;53.288;10.458;2024-03-08T16:25:42;10.70;98.30
7240;DHT22;3661;53.288;10.458;2024-03-08T16:28:15;10.60;98.40
7240;DHT22;3661;53.288;10.458;2024-03-08T16:30:47;10.50;98.40
7240;DHT22;3661;53.288;10.458;2024-03-08T16:33:21;10.40;98.40
7240;DHT22;3661;53.288;10.458;2024-03-08T16:35:54;10.30;98.50
7240;DHT22;3661;53.288;10.458;2024-03-08T16:38:27;10.20;98.30
7240;DHT22;3661;53.288;10.458;2024-03-08T16:40:59;10.10;98.30
7240;DHT22;3661;53.288;10.458;2024-03-08T16:43:31;10.00;98.20
7240;DHT22;3661;53.288;10.458;2024-03-08T16:46:04;9.90;98.70
7240;DHT22;3661;53.288;10.458;2024-03-08T16:48:38;9.80;98.70
7240;DHT22;3661;53.288;10.458;2024-03-08T16:51:10;9.70;98.80
7240;DHT22;3661;53.288;10.458;2024-03-08T16:53:42;9.60;98.80
7240;DHT22;3661;53.288;10.458;2024-03-08T16:56:18;9.50;99.00